Bay Horse, United Kingdom
Current Conditions -  °F | °C
As of 1:20 AM on Sunday 26 Oct 2014 (Local Time) from EGNM Reporting Station
Clear Clear  
Wind Chill: 50°   Ceiling: Unl
Heat Index: 50°   Visibility: 6mi
Dew Point: 46°   Wind: 10mph
Humidity: 87%   Direction: 220°SW
Pressure: 29.94"   Gusts: NA
Location:  53.97°N, 2.78°W
Report Text: EGNM 260020Z 22009KT 180V260 CAVOK 10/08 Q1014
Loading
Personal Weather Stations






























Interactive Weather Map
Tropical Storm Tracking
New forecast layout! Learn more

10-Day Weather Forecast

Advertisements
Track Severe Weather on mobile